createdAt,value
2022-12-19T00:01:35.402Z,95.98
2022-12-19T00:03:38.115Z,94.77
2022-12-19T00:05:42.123Z,95.99
2022-12-19T00:07:48.253Z,94.99
2022-12-19T00:09:50.887Z,95.39
2022-12-19T00:11:54.084Z,95.56
2022-12-19T00:13:56.955Z,96.38
2022-12-19T00:16:07.792Z,96.03
2022-12-19T00:18:10.519Z,96.93
2022-12-19T00:20:13.228Z,95.71
2022-12-19T00:22:21.308Z,95.86
2022-12-19T00:24:23.988Z,96.11
2022-12-19T00:26:32.004Z,95.96
2022-12-19T00:28:34.894Z,95.76
2022-12-19T00:30:37.586Z,96.45
2022-12-19T00:32:40.542Z,96.27
2022-12-19T00:34:43.064Z,96.58
2022-12-19T00:36:45.746Z,96.17
2022-12-19T00:38:49.139Z,96.33
2022-12-19T00:40:51.675Z,96.67
2022-12-19T00:42:54.285Z,96.60
2022-12-19T00:44:58.052Z,96.54
2022-12-19T00:47:00.619Z,96.26
2022-12-19T00:49:03.882Z,96.81
2022-12-19T00:51:11.195Z,95.89
2022-12-19T00:53:13.682Z,97.08
2022-12-19T00:55:31.573Z,96.87
2022-12-19T00:57:34.129Z,96.76
2022-12-19T00:59:36.738Z,96.91
2022-12-19T01:01:41.819Z,97.20
2022-12-19T01:04:04.400Z,96.95
2022-12-19T01:06:08.590Z,97.90
2022-12-19T01:08:11.348Z,97.65
2022-12-19T01:10:13.915Z,98.32
2022-12-19T01:12:35.034Z,98.31
2022-12-19T01:14:37.658Z,98.36
2022-12-19T01:16:40.293Z,98.48
2022-12-19T01:18:42.842Z,98.15
2022-12-19T01:20:49.086Z,98.30
2022-12-19T01:22:51.913Z,97.85
2022-12-19T01:24:54.469Z,98.02
2022-12-19T01:26:57.182Z,97.58
2022-12-19T01:28:59.843Z,98.04
2022-12-19T01:31:06.151Z,97.51
2022-12-19T01:33:12.786Z,97.75
2022-12-19T01:35:21.284Z,97.89
2022-12-19T01:37:24.446Z,98.01
2022-12-19T01:39:27.091Z,98.52
2022-12-19T01:41:33.001Z,98.47
2022-12-19T01:43:56.740Z,98.85
2022-12-19T01:46:06.326Z,98.37
2022-12-19T01:48:26.452Z,99.01
2022-12-19T01:50:37.750Z,99.10
2022-12-19T01:52:42.823Z,99.11
2022-12-19T01:54:45.512Z,98.91
2022-12-19T01:56:52.149Z,98.90
2022-12-19T01:59:05.114Z,98.89
2022-12-19T02:01:09.417Z,98.24
2022-12-19T02:03:35.543Z,97.26
2022-12-19T02:05:39.441Z,97.00
2022-12-19T02:07:43.526Z,97.27
2022-12-19T02:09:52.429Z,97.35
2022-12-19T02:12:00.771Z,96.50
2022-12-19T02:14:03.477Z,96.74
2022-12-19T02:16:48.357Z,97.05
2022-12-19T02:19:06.060Z,96.84
2022-12-19T02:21:34.019Z,96.46
2022-12-19T02:23:36.519Z,96.32
2022-12-19T02:26:03.175Z,96.18
2022-12-19T02:28:08.456Z,95.30
2022-12-19T02:30:52.791Z,95.42
2022-12-19T02:33:08.899Z,95.49
2022-12-19T02:35:22.933Z,95.67
2022-12-19T02:37:33.720Z,95.56
2022-12-19T02:39:46.845Z,95.61
2022-12-19T02:41:56.343Z,94.30
2022-12-19T02:43:59.248Z,94.44
2022-12-19T02:46:04.388Z,93.69
2022-12-19T02:48:09.180Z,92.78
2022-12-19T02:50:13.281Z,92.26
2022-12-19T02:52:21.712Z,92.03
2022-12-19T02:54:24.964Z,91.77
2022-12-19T02:56:51.088Z,90.80
2022-12-19T02:59:09.872Z,91.19
2022-12-19T03:01:39.584Z,90.60
2022-12-19T03:03:59.809Z,91.53
2022-12-19T03:06:35.126Z,91.06
2022-12-19T03:08:53.796Z,91.61
2022-12-19T03:11:02.888Z,91.42
2022-12-19T03:13:11.728Z,90.76
2022-12-19T03:15:15.602Z,90.54
2022-12-19T03:17:19.795Z,91.11
2022-12-19T03:19:22.913Z,90.02
2022-12-19T03:21:40.183Z,90.14
2022-12-19T03:23:45.014Z,90.09
2022-12-19T03:25:52.920Z,90.48
2022-12-19T03:27:59.200Z,91.36
2022-12-19T03:30:11.348Z,91.23
2022-12-19T03:32:16.029Z,91.44
2022-12-19T03:34:28.644Z,91.87
2022-12-19T03:36:37.727Z,92.52
2022-12-19T03:38:42.827Z,92.49
2022-12-19T03:40:47.055Z,93.78
2022-12-19T03:43:11.601Z,93.96
2022-12-19T03:45:23.683Z,93.72
2022-12-19T03:47:35.383Z,93.57
2022-12-19T03:49:38.318Z,92.81
2022-12-19T03:51:54.899Z,92.79
2022-12-19T03:54:17.265Z,93.46
2022-12-19T03:56:26.621Z,93.29
2022-12-19T03:58:34.523Z,93.04
2022-12-19T04:00:40.732Z,93.35
2022-12-19T04:02:47.767Z,92.81
2022-12-19T04:05:10.824Z,93.01
2022-12-19T04:07:15.286Z,93.06
2022-12-19T04:09:22.625Z,91.60
2022-12-19T04:11:30.164Z,91.87
2022-12-19T04:13:42.421Z,92.11
2022-12-19T04:16:08.008Z,89.89
2022-12-19T04:18:13.898Z,91.07
2022-12-19T04:20:19.278Z,91.34
2022-12-19T04:22:31.456Z,90.64
2022-12-19T04:24:37.972Z,90.37
2022-12-19T04:26:44.261Z,90.74
2022-12-19T04:29:00.142Z,90.45
2022-12-19T04:31:03.986Z,90.35
2022-12-19T04:33:07.940Z,90.29
2022-12-19T04:35:10.988Z,90.43
2022-12-19T04:37:13.709Z,91.14
2022-12-19T04:39:16.632Z,90.74
2022-12-19T04:41:19.245Z,90.71
2022-12-19T04:43:21.846Z,90.54
2022-12-19T04:45:24.421Z,90.25
2022-12-19T04:47:27.145Z,90.97
2022-12-19T04:49:29.722Z,91.76
2022-12-19T04:51:32.256Z,91.01
2022-12-19T04:53:35.421Z,91.09
2022-12-19T04:55:38.023Z,91.41
2022-12-19T04:57:40.531Z,90.78
2022-12-19T04:59:43.146Z,91.06
2022-12-19T05:01:45.913Z,91.64
2022-12-19T05:03:54.065Z,91.20
2022-12-19T05:06:08.472Z,91.01
2022-12-19T05:08:11.084Z,90.65
2022-12-19T05:10:14.335Z,89.85
2022-12-19T05:12:17.212Z,90.27
2022-12-19T05:14:19.879Z,90.28
2022-12-19T05:16:22.533Z,89.86
2022-12-19T05:18:25.917Z,90.32
2022-12-19T05:20:28.471Z,89.31
2022-12-19T05:22:32.366Z,90.43
2022-12-19T05:24:34.877Z,90.18
2022-12-19T05:26:37.857Z,90.15
2022-12-19T05:28:40.551Z,89.98
2022-12-19T05:30:47.848Z,89.62
2022-12-19T05:32:54.566Z,89.07
2022-12-19T05:34:57.163Z,89.70
2022-12-19T05:36:59.669Z,90.18
2022-12-19T05:39:02.863Z,89.87
2022-12-19T05:41:13.925Z,89.09
2022-12-19T05:43:16.506Z,88.62
2022-12-19T05:45:19.443Z,88.73
2022-12-19T05:47:22.077Z,89.58
2022-12-19T05:49:24.623Z,88.60
2022-12-19T05:51:27.821Z,88.46
2022-12-19T05:53:30.493Z,88.86
2022-12-19T05:55:33.059Z,88.40
2022-12-19T05:57:35.898Z,88.20
2022-12-19T05:59:38.545Z,88.12
2022-12-19T06:01:41.229Z,88.49
2022-12-19T06:03:44.434Z,88.24
2022-12-19T06:05:47.084Z,88.40
2022-12-19T06:07:49.654Z,86.65
2022-12-19T06:09:52.305Z,87.44
2022-12-19T06:11:55.684Z,88.02
2022-12-19T06:13:58.635Z,88.59
2022-12-19T06:16:06.143Z,88.72
2022-12-19T06:18:08.871Z,88.41
2022-12-19T06:20:12.560Z,88.88
2022-12-19T06:22:15.365Z,88.64
2022-12-19T06:24:18.178Z,87.46
2022-12-19T06:26:22.841Z,86.28
2022-12-19T06:28:27.188Z,87.47
2022-12-19T06:30:29.816Z,87.08
2022-12-19T06:32:37.735Z,86.78
2022-12-19T06:35:03.141Z,87.38
2022-12-19T06:37:07.980Z,87.64
2022-12-19T06:39:14.378Z,88.40
2022-12-19T06:41:37.179Z,89.19
2022-12-19T06:43:39.890Z,88.15
2022-12-19T06:45:42.589Z,88.30
2022-12-19T06:47:45.255Z,88.27
2022-12-19T06:49:48.861Z,87.80
2022-12-19T06:51:51.568Z,88.10
2022-12-19T06:53:54.344Z,88.07
2022-12-19T06:55:59.092Z,89.14
2022-12-19T06:58:01.671Z,89.03
2022-12-19T07:00:04.526Z,88.59
2022-12-19T07:02:16.232Z,87.95
2022-12-19T07:04:32.986Z,88.40
2022-12-19T07:06:35.946Z,87.50
2022-12-19T07:08:38.757Z,86.87
2022-12-19T07:10:41.371Z,87.09
2022-12-19T07:12:43.938Z,86.68
2022-12-19T07:14:51.670Z,87.10
2022-12-19T07:17:00.246Z,88.51
2022-12-19T07:19:02.929Z,87.54
2022-12-19T07:21:08.180Z,87.25
2022-12-19T07:23:20.869Z,85.66
2022-12-19T07:25:23.687Z,86.38
2022-12-19T07:27:35.178Z,86.25
2022-12-19T07:29:38.306Z,86.11
2022-12-19T07:31:40.979Z,87.19
2022-12-19T07:33:43.728Z,87.52
2022-12-19T07:35:46.518Z,87.57
2022-12-19T07:37:50.819Z,87.33
2022-12-19T07:39:53.573Z,87.44
2022-12-19T07:41:56.252Z,87.83
2022-12-19T07:43:58.905Z,87.40
2022-12-19T07:46:01.746Z,87.24
2022-12-19T07:48:07.827Z,87.21
2022-12-19T07:50:10.538Z,87.47
2022-12-19T07:52:13.234Z,86.43
2022-12-19T07:54:15.891Z,86.94
2022-12-19T07:56:18.638Z,86.38
2022-12-19T07:58:21.705Z,86.07
2022-12-19T08:00:24.548Z,86.68
2022-12-19T08:02:27.294Z,87.41
2022-12-19T08:04:30.188Z,85.62
2022-12-19T08:06:37.655Z,86.65
2022-12-19T08:08:43.563Z,87.21
2022-12-19T08:10:46.289Z,86.98
2022-12-19T08:12:49.414Z,87.10
2022-12-19T08:14:56.953Z,87.48
2022-12-19T08:19:27.286Z,86.35
2022-12-19T08:21:30.850Z,85.02
2022-12-19T08:23:33.652Z,84.72
2022-12-19T08:25:36.641Z,85.87
2022-12-19T08:27:39.851Z,86.08
2022-12-19T08:29:42.670Z,86.38
2022-12-19T08:31:45.471Z,87.12
2022-12-19T08:33:48.175Z,87.66
2022-12-19T08:35:50.989Z,88.45
2022-12-19T08:37:53.644Z,87.24
2022-12-19T08:39:56.351Z,88.29
2022-12-19T08:41:59.151Z,88.19
2022-12-19T08:44:02.385Z,88.35
2022-12-19T08:46:06.399Z,88.31
2022-12-19T08:48:09.241Z,89.07
2022-12-19T08:50:12.109Z,88.73
2022-12-19T08:52:14.695Z,88.83
2022-12-19T08:54:17.351Z,89.05
2022-12-19T08:56:21.837Z,88.68
2022-12-19T08:58:25.334Z,88.63
2022-12-19T09:00:27.905Z,87.46
2022-12-19T09:02:30.983Z,87.81
2022-12-19T09:06:02.452Z,88.22
2022-12-19T09:06:56.655Z,87.36
2022-12-19T09:09:00.517Z,88.65
2022-12-19T09:11:06.326Z,87.97
2022-12-19T09:13:09.099Z,87.73
2022-12-19T09:15:11.838Z,88.35
2022-12-19T09:17:14.725Z,87.68
2022-12-19T09:19:17.498Z,88.17
2022-12-19T09:21:22.500Z,88.77
2022-12-19T09:23:28.565Z,88.80
2022-12-19T09:25:31.167Z,88.98
2022-12-19T09:28:01.293Z,89.00
2022-12-19T09:29:56.531Z,88.58
2022-12-19T09:31:59.306Z,88.74
2022-12-19T09:34:01.879Z,88.21
2022-12-19T09:36:05.697Z,88.55
2022-12-19T09:38:08.302Z,88.23
2022-12-19T09:40:17.549Z,88.32
2022-12-19T09:42:41.388Z,88.77
2022-12-19T09:45:02.734Z,88.48
2022-12-19T09:47:17.016Z,87.49
2022-12-19T09:49:30.120Z,87.72
2022-12-19T09:51:40.808Z,88.22
2022-12-19T09:54:05.424Z,87.59
2022-12-19T09:56:15.923Z,87.52
2022-12-19T09:58:32.035Z,87.47
2022-12-19T10:00:39.736Z,87.75
2022-12-19T10:02:57.183Z,87.55
2022-12-19T10:05:46.895Z,88.03
2022-12-19T10:08:07.652Z,88.06
2022-12-19T10:12:46.144Z,88.47
2022-12-19T10:12:59.428Z,87.78
2022-12-19T10:15:36.396Z,87.90
2022-12-19T10:18:12.808Z,88.63
2022-12-19T10:20:33.176Z,89.24
2022-12-19T10:23:05.604Z,89.31
2022-12-19T10:25:12.265Z,88.79
2022-12-19T10:27:20.803Z,89.39
2022-12-19T10:29:41.868Z,89.36
2022-12-19T10:32:19.641Z,89.55
2022-12-19T10:34:25.275Z,89.03
2022-12-19T10:37:03.971Z,89.00
2022-12-19T10:39:06.731Z,88.91
2022-12-19T10:41:43.843Z,89.15
2022-12-19T10:43:56.944Z,89.55
2022-12-19T10:46:03.797Z,90.43
2022-12-19T10:48:12.152Z,89.84
2022-12-19T10:50:22.038Z,90.56
2022-12-19T10:52:52.632Z,90.26
2022-12-19T10:54:55.229Z,90.57
2022-12-19T10:57:20.551Z,90.22
2022-12-19T10:59:23.234Z,90.65
2022-12-19T11:01:29.932Z,90.85
2022-12-19T11:03:34.418Z,91.18
2022-12-19T11:05:47.415Z,91.05
2022-12-19T11:08:08.516Z,91.16
2022-12-19T11:11:14.377Z,90.97
2022-12-19T11:18:15.643Z,91.32
2022-12-19T11:21:12.798Z,92.03
2022-12-19T11:22:55.086Z,92.14
2022-12-19T11:29:38.649Z,91.64
2022-12-19T11:29:45.132Z,91.88
2022-12-19T11:30:21.343Z,91.67
2022-12-19T11:30:47.664Z,91.98
2022-12-19T11:32:43.616Z,91.56
2022-12-19T11:34:51.057Z,91.95
2022-12-19T11:37:17.604Z,91.96
2022-12-19T11:39:32.805Z,91.95
2022-12-19T11:42:07.538Z,91.13
2022-12-19T11:44:29.692Z,91.93
2022-12-19T11:46:46.935Z,91.65
2022-12-19T11:49:15.409Z,91.35
2022-12-19T11:51:58.416Z,91.46
2022-12-19T11:54:19.098Z,91.14
2022-12-19T11:56:25.007Z,91.60
2022-12-19T11:58:29.991Z,91.45
2022-12-19T12:00:35.032Z,91.05
2022-12-19T12:03:06.055Z,91.19
2022-12-19T12:05:20.988Z,90.83
2022-12-19T12:08:52.595Z,90.38
2022-12-19T12:16:42.475Z,90.27
2022-12-19T12:22:09.401Z,90.25
2022-12-19T12:31:00.020Z,89.69
2022-12-19T12:31:15.619Z,90.31
2022-12-19T12:31:29.275Z,90.63
2022-12-19T12:31:32.067Z,90.71
2022-12-19T12:31:49.443Z,90.72
2022-12-19T12:32:03.752Z,90.55
2022-12-19T12:35:52.122Z,90.24
2022-12-19T12:35:54.205Z,89.78
2022-12-19T12:40:46.213Z,90.15
2022-12-19T12:43:01.776Z,90.18
2022-12-19T12:45:19.718Z,90.44
2022-12-19T12:47:27.159Z,90.41
2022-12-19T12:49:37.892Z,90.14
2022-12-19T12:51:41.287Z,90.88
2022-12-19T12:53:47.073Z,91.11
2022-12-19T12:55:51.693Z,90.20
2022-12-19T12:57:55.559Z,90.37
2022-12-19T13:00:16.965Z,90.30
2022-12-19T13:02:33.582Z,90.09
2022-12-19T13:04:54.055Z,89.92
2022-12-19T13:07:26.521Z,90.39
2022-12-19T13:09:30.730Z,90.24
2022-12-19T13:11:57.074Z,90.46
2022-12-19T13:14:00.213Z,90.78
2022-12-19T13:16:43.027Z,90.69
2022-12-19T13:19:04.636Z,90.34
2022-12-19T13:21:08.827Z,89.81
2022-12-19T13:23:33.540Z,90.46
2022-12-19T13:25:36.842Z,90.99
2022-12-19T13:27:40.790Z,90.25
2022-12-19T13:30:01.561Z,90.47
2022-12-19T13:32:13.133Z,91.25
2022-12-19T13:34:19.698Z,91.16
2022-12-19T13:40:00.503Z,91.22
2022-12-19T13:40:01.197Z,91.05
2022-12-19T13:42:06.984Z,91.80
2022-12-19T13:44:09.816Z,91.52
2022-12-19T13:46:37.582Z,91.57
2022-12-19T13:48:53.234Z,91.53
2022-12-19T13:50:57.796Z,91.74
2022-12-19T13:53:00.512Z,91.40
2022-12-19T13:55:03.812Z,91.68
2022-12-19T13:57:28.306Z,91.71
2022-12-19T13:59:36.925Z,91.63
2022-12-19T14:01:41.231Z,91.75
2022-12-19T14:03:45.672Z,91.08
2022-12-19T14:06:17.570Z,91.39
2022-12-19T14:08:19.704Z,91.59
2022-12-19T14:11:35.888Z,90.58
2022-12-19T14:13:42.574Z,91.22
2022-12-19T14:15:36.943Z,91.21
2022-12-19T14:17:39.662Z,90.90
2022-12-19T14:19:48.631Z,90.79
2022-12-19T14:22:11.570Z,91.12
2022-12-19T14:24:25.721Z,91.11
2022-12-19T14:28:26.823Z,91.28
2022-12-19T14:30:19.395Z,91.79
2022-12-19T14:33:40.242Z,92.03
2022-12-19T14:35:46.505Z,91.70
2022-12-19T14:36:55.933Z,91.83
2022-12-19T14:39:25.484Z,91.87
2022-12-19T14:41:46.470Z,92.30
2022-12-19T14:43:59.897Z,92.60
2022-12-19T14:53:10.789Z,92.50
2022-12-19T14:54:01.313Z,92.81
2022-12-19T14:54:28.611Z,92.08
2022-12-19T14:57:04.769Z,92.02
2022-12-19T14:59:41.366Z,91.97
2022-12-19T15:01:55.978Z,91.84
2022-12-19T15:04:52.466Z,92.46
2022-12-19T15:07:10.037Z,92.19
2022-12-19T15:10:40.828Z,92.62
2022-12-19T15:12:09.813Z,91.98
2022-12-19T15:14:54.847Z,91.72
2022-12-19T15:17:22.166Z,92.13
2022-12-19T15:19:24.736Z,92.66
2022-12-19T15:21:29.852Z,92.33
2022-12-19T15:23:32.948Z,92.18
2022-12-19T15:26:02.905Z,92.70
2022-12-19T15:27:58.375Z,91.98
2022-12-19T15:30:01.051Z,92.02
2022-12-19T15:32:04.549Z,92.29
2022-12-19T15:34:40.447Z,91.93
2022-12-19T15:36:47.358Z,91.87
2022-12-19T15:38:49.955Z,92.32
2022-12-19T15:40:52.633Z,91.94
2022-12-19T15:42:58.616Z,92.85
2022-12-19T15:45:03.058Z,92.57
2022-12-19T15:47:29.828Z,91.77
2022-12-19T15:49:35.329Z,92.70
2022-12-19T15:51:38.112Z,91.60
2022-12-19T15:53:41.569Z,92.00
2022-12-19T15:55:44.352Z,92.03
2022-12-19T15:57:51.843Z,92.03
2022-12-19T15:59:56.675Z,91.80
2022-12-19T16:01:59.545Z,92.53
2022-12-19T16:04:03.704Z,92.16
2022-12-19T16:06:13.585Z,92.19
2022-12-19T16:08:19.724Z,91.98
2022-12-19T16:10:22.711Z,92.33
2022-12-19T16:12:34.077Z,91.88
2022-12-19T16:14:36.684Z,91.81
2022-12-19T16:16:39.984Z,92.02
2022-12-19T16:18:45.529Z,92.45
2022-12-19T16:20:48.736Z,92.12
2022-12-19T16:22:51.629Z,92.62
2022-12-19T16:24:55.016Z,92.65
2022-12-19T16:26:59.057Z,92.30
2022-12-19T16:29:02.427Z,92.77
2022-12-19T16:31:15.835Z,92.76
2022-12-19T16:33:21.694Z,93.10
2022-12-19T16:35:54.879Z,93.30
2022-12-19T16:37:49.615Z,92.80
2022-12-19T16:39:52.199Z,92.42
2022-12-19T16:41:55.002Z,92.64
2022-12-19T16:43:57.825Z,92.98
2022-12-19T16:46:01.770Z,92.45
2022-12-19T16:48:18.808Z,92.27
2022-12-19T16:50:28.537Z,91.89
2022-12-19T16:52:31.143Z,91.89
2022-12-19T16:54:33.864Z,92.32
2022-12-19T16:56:42.911Z,91.67
2022-12-19T16:58:45.520Z,91.25
2022-12-19T17:00:49.536Z,90.98
2022-12-19T17:02:59.596Z,90.74
2022-12-19T17:05:02.191Z,90.92
2022-12-19T17:07:10.259Z,90.50
2022-12-19T17:09:21.710Z,90.52
2022-12-19T17:11:28.419Z,90.84
2022-12-19T17:13:31.259Z,90.54
2022-12-19T17:15:39.002Z,90.42
2022-12-19T17:17:41.934Z,90.26
2022-12-19T17:19:46.038Z,91.04
2022-12-19T17:21:49.637Z,90.46
2022-12-19T17:23:52.515Z,90.63
2022-12-19T17:25:56.544Z,91.02
2022-12-19T17:27:59.219Z,91.27
2022-12-19T17:30:01.815Z,91.37
2022-12-19T17:32:09.008Z,90.89
2022-12-19T17:34:29.633Z,90.55
2022-12-19T17:36:37.548Z,90.41
2022-12-19T17:38:41.130Z,90.02
2022-12-19T17:40:45.013Z,90.05
2022-12-19T17:42:48.082Z,90.04
2022-12-19T17:44:51.421Z,90.41
2022-12-19T17:46:54.014Z,90.11
2022-12-19T17:48:56.656Z,90.41
2022-12-19T17:51:00.295Z,90.28
2022-12-19T17:53:02.956Z,89.99
2022-12-19T17:55:21.351Z,89.79
2022-12-19T17:57:24.132Z,89.90
2022-12-19T17:59:26.753Z,89.83
2022-12-19T18:01:30.049Z,90.25
2022-12-19T18:03:34.000Z,89.89
2022-12-19T18:05:37.380Z,89.81
2022-12-19T18:07:39.960Z,89.72
2022-12-19T18:09:43.199Z,89.90
2022-12-19T18:11:46.687Z,90.24
2022-12-19T18:13:49.677Z,89.90
2022-12-19T18:15:55.978Z,89.75
2022-12-19T18:17:58.762Z,89.52
2022-12-19T18:20:01.503Z,89.53
2022-12-19T18:22:13.500Z,89.42
2022-12-19T18:24:16.782Z,89.60
2022-12-19T18:26:19.606Z,89.73
2022-12-19T18:28:22.249Z,89.57
2022-12-19T18:30:25.918Z,89.30
2022-12-19T18:32:28.818Z,89.20
2022-12-19T18:34:33.434Z,89.28
2022-12-19T18:36:42.676Z,89.08
2022-12-19T18:38:45.446Z,89.02
2022-12-19T18:40:50.266Z,89.30
2022-12-19T18:42:52.993Z,89.58
2022-12-19T18:44:55.561Z,89.50
2022-12-19T18:46:59.165Z,89.67
2022-12-19T18:49:01.771Z,89.33
2022-12-19T18:51:05.520Z,89.82
2022-12-19T18:53:13.134Z,89.71
2022-12-19T18:55:21.354Z,89.65
2022-12-19T18:57:24.021Z,89.29
2022-12-19T18:59:26.822Z,89.52
2022-12-19T19:01:29.644Z,89.62
2022-12-19T19:03:36.489Z,89.59
2022-12-19T19:05:40.682Z,89.29
2022-12-19T19:07:44.329Z,89.59
2022-12-19T19:09:47.074Z,89.45
2022-12-19T19:11:49.734Z,89.53
2022-12-19T19:13:53.896Z,89.44
2022-12-19T19:16:02.865Z,89.56
2022-12-19T19:18:07.918Z,89.66
2022-12-19T19:20:10.981Z,89.55
2022-12-19T19:22:13.568Z,89.47
2022-12-19T19:24:19.123Z,89.26
2022-12-19T19:26:22.355Z,88.97
2022-12-19T19:28:24.998Z,89.55
2022-12-19T19:30:27.634Z,89.58
2022-12-19T19:32:30.395Z,89.83
2022-12-19T19:34:35.401Z,89.55
2022-12-19T19:36:41.611Z,89.72
2022-12-19T19:38:47.541Z,89.83
2022-12-19T19:40:50.570Z,89.95
2022-12-19T19:42:53.165Z,89.62
2022-12-19T19:44:55.917Z,89.60
2022-12-19T19:46:58.913Z,89.50
2022-12-19T19:49:01.490Z,90.02
2022-12-19T19:51:04.222Z,89.67
2022-12-19T19:53:07.037Z,89.47
2022-12-19T19:55:10.647Z,89.49
2022-12-19T19:57:13.347Z,89.32
2022-12-19T19:59:15.954Z,89.16
2022-12-19T20:01:18.733Z,89.21
2022-12-19T20:03:23.261Z,89.08
2022-12-19T20:05:26.253Z,88.90
2022-12-19T20:07:29.109Z,88.91
2022-12-19T20:09:31.842Z,88.95
2022-12-19T20:11:34.445Z,88.77
2022-12-19T20:13:37.854Z,88.93
2022-12-19T20:15:45.994Z,89.16
2022-12-19T20:17:53.043Z,89.62
2022-12-19T20:19:55.661Z,89.44
2022-12-19T20:22:00.369Z,89.55
2022-12-19T20:24:02.971Z,89.57
2022-12-19T20:26:06.658Z,89.70
2022-12-19T20:28:09.658Z,90.02
2022-12-19T20:30:12.684Z,89.59
2022-12-19T20:32:15.429Z,89.71
2022-12-19T20:34:20.080Z,89.45
2022-12-19T20:36:23.474Z,89.47
2022-12-19T20:38:26.091Z,89.57
2022-12-19T20:40:29.009Z,89.66
2022-12-19T20:42:31.660Z,89.44
2022-12-19T20:44:34.276Z,89.68
2022-12-19T20:46:37.068Z,89.77
2022-12-19T20:48:40.147Z,89.88
2022-12-19T20:50:43.354Z,89.66
2022-12-19T20:52:46.142Z,90.28
2022-12-19T20:54:48.658Z,90.05
2022-12-19T20:56:52.338Z,89.95
2022-12-19T20:58:55.067Z,89.65
2022-12-19T21:01:11.845Z,89.96
2022-12-19T21:03:27.575Z,89.66
2022-12-19T21:05:37.637Z,89.80
2022-12-19T21:07:40.286Z,89.78
2022-12-19T21:09:45.925Z,89.59
2022-12-19T21:11:49.367Z,89.90
2022-12-19T21:14:00.702Z,89.48
2022-12-19T21:16:11.135Z,89.81
2022-12-19T21:18:23.594Z,89.16
2022-12-19T21:20:34.379Z,89.56
2022-12-19T21:22:41.735Z,89.55
2022-12-19T21:25:01.339Z,89.46
2022-12-19T21:27:28.201Z,89.32
2022-12-19T21:29:33.917Z,89.12
2022-12-19T21:31:53.073Z,89.27
2022-12-19T21:33:59.623Z,88.97
2022-12-19T21:36:08.884Z,88.83
2022-12-19T21:38:15.063Z,88.72
2022-12-19T21:40:49.078Z,88.71
2022-12-19T21:43:11.456Z,88.75
2022-12-19T21:45:34.341Z,88.72
2022-12-19T21:47:49.278Z,88.66
2022-12-19T21:50:01.089Z,88.61
2022-12-19T21:52:06.882Z,88.52
2022-12-19T21:54:10.297Z,88.55
2022-12-19T21:56:21.760Z,88.56
2022-12-19T21:58:24.381Z,88.32
2022-12-19T22:00:26.983Z,88.53
2022-12-19T22:02:29.897Z,88.56
2022-12-19T22:04:49.519Z,88.52
2022-12-19T22:06:52.224Z,88.21
2022-12-19T22:08:58.584Z,88.50
2022-12-19T22:11:04.439Z,88.27
2022-12-19T22:13:10.561Z,88.14
2022-12-19T22:15:16.214Z,88.07
2022-12-19T22:17:27.528Z,87.69
2022-12-19T22:19:36.048Z,87.99
2022-12-19T22:21:38.713Z,87.84
2022-12-19T22:23:43.946Z,88.03
2022-12-19T22:26:16.537Z,87.59
2022-12-19T22:28:25.043Z,87.74
2022-12-19T22:30:35.895Z,87.95
2022-12-19T22:32:38.672Z,88.20
2022-12-19T22:34:50.197Z,88.23
2022-12-19T22:36:53.144Z,88.07
2022-12-19T22:38:56.653Z,88.03
2022-12-19T22:41:08.592Z,88.26
2022-12-19T22:43:11.204Z,88.46
2022-12-19T22:45:13.680Z,88.44
2022-12-19T22:47:16.239Z,88.40
2022-12-19T22:49:19.059Z,88.56
2022-12-19T22:51:21.821Z,88.36
2022-12-19T22:53:24.572Z,88.11
2022-12-19T22:55:27.206Z,88.70
2022-12-19T22:57:29.813Z,88.45
2022-12-19T22:59:32.472Z,88.55
2022-12-19T23:01:38.349Z,88.23
2022-12-19T23:03:41.988Z,88.23
2022-12-19T23:05:51.588Z,88.06
2022-12-19T23:07:54.586Z,88.47
2022-12-19T23:09:57.207Z,87.91
2022-12-19T23:11:59.893Z,88.21
2022-12-19T23:14:04.897Z,88.28
2022-12-19T23:16:08.724Z,88.36
2022-12-19T23:18:11.529Z,88.22
2022-12-19T23:20:14.314Z,88.30
2022-12-19T23:22:16.915Z,87.94
2022-12-19T23:24:20.823Z,88.15
2022-12-19T23:26:27.854Z,88.18
2022-12-19T23:28:30.469Z,87.91
2022-12-19T23:30:33.225Z,87.64
2022-12-19T23:32:35.780Z,87.64
2022-12-19T23:34:38.383Z,87.54
2022-12-19T23:39:04.351Z,87.33
2022-12-19T23:41:09.008Z,87.55
2022-12-19T23:43:11.760Z,87.62
2022-12-19T23:45:14.546Z,87.56
2022-12-19T23:47:17.276Z,88.01
2022-12-19T23:49:19.848Z,87.58
2022-12-19T23:51:27.582Z,87.69
2022-12-19T23:53:31.963Z,87.31
2022-12-19T23:55:36.282Z,87.40
2022-12-19T23:57:38.784Z,87.71
2022-12-19T23:59:41.426Z,87.75
